AMX240 MMMY-MMSM
Flight info
| Callsign | AMX240 |
|---|---|
| Flight time | 1h 5m |
| Altitude | 31000 |
| Route | KERGA1A KERGA UT132 VILSI UT168 TOREO TOREO1A |
| Aircraft | B738/M-SDE2E3FGHIRWXY/LB1 |
Departure
| Time | 2026-05-09 01:15 |
|---|---|
| Airport | Monterrey International Airport (MMMY) |
Arrival
| Time | 2026-05-09 02:21 |
|---|---|
| Airport | Felipe Ángeles International Airport (MMSM) |
| Time | Latitude | Longitude | Altitude | Speed | Heading |
|---|---|---|---|---|---|
| 2026-05-09 00:38 | 25.77882 | -100.11329 | 1280 ft | 0 kts | 211° |
| 2026-05-09 01:01 | 25.77883 | -100.11329 | 1280 ft | 0 kts | 211° |
| 2026-05-09 01:05 | 25.77907 | -100.11312 | 1285 ft | 4 kts | 211° |
| 2026-05-09 01:06 | 25.77928 | -100.11298 | 1283 ft | 3 kts | 211° |
| 2026-05-09 01:06 | 25.77945 | -100.11281 | 1283 ft | 4 kts | 257° |
| 2026-05-09 01:06 | 25.77941 | -100.11255 | 1282 ft | 4 kts | 300° |
| 2026-05-09 01:06 | 25.77936 | -100.11245 | 1282 ft | 1 kts | 300° |
| 2026-05-09 01:09 | 25.77941 | -100.11255 | 1282 ft | 4 kts | 300° |
| 2026-05-09 01:09 | 25.77958 | -100.11287 | 1281 ft | 5 kts | 300° |
| 2026-05-09 01:10 | 25.77975 | -100.11320 | 1280 ft | 5 kts | 300° |
| 2026-05-09 01:10 | 25.77993 | -100.11352 | 1280 ft | 5 kts | 301° |
| 2026-05-09 01:10 | 25.78010 | -100.11384 | 1280 ft | 5 kts | 301° |
| 2026-05-09 01:10 | 25.78026 | -100.11415 | 1280 ft | 5 kts | 301° |
| 2026-05-09 01:11 | 25.78043 | -100.11446 | 1280 ft | 5 kts | 301° |
| 2026-05-09 01:11 | 25.78062 | -100.11480 | 1280 ft | 9 kts | 302° |
| 2026-05-09 01:11 | 25.78098 | -100.11545 | 1280 ft | 10 kts | 302° |
| 2026-05-09 01:11 | 25.78134 | -100.11610 | 1280 ft | 10 kts | 301° |
| 2026-05-09 01:12 | 25.78170 | -100.11675 | 1280 ft | 10 kts | 301° |
| 2026-05-09 01:12 | 25.78204 | -100.11737 | 1280 ft | 9 kts | 301° |
| 2026-05-09 01:12 | 25.78240 | -100.11798 | 1280 ft | 9 kts | 313° |
| 2026-05-09 01:12 | 25.78298 | -100.11788 | 1280 ft | 9 kts | 26° |
| 2026-05-09 01:13 | 25.78321 | -100.11775 | 1280 ft | 0 kts | 32° |
| 2026-05-09 01:13 | 25.78335 | -100.11765 | 1280 ft | 6 kts | 32° |
| 2026-05-09 01:13 | 25.78369 | -100.11741 | 1280 ft | 6 kts | 32° |
| 2026-05-09 01:14 | 25.78397 | -100.11710 | 1280 ft | 6 kts | 71° |
| 2026-05-09 01:14 | 25.78390 | -100.11671 | 1281 ft | 0 kts | 118° |
| 2026-05-09 01:14 | 25.78386 | -100.11663 | 1281 ft | 11 kts | 118° |
| 2026-05-09 01:14 | 25.78218 | -100.11357 | 1280 ft | 80 kts | 121° |
| 2026-05-09 01:15 | 25.77824 | -100.10641 | 1278 ft | 138 kts | 121° |
| 2026-05-09 01:15 | 25.77239 | -100.09563 | 1388 ft | 177 kts | 121° |
| 2026-05-09 01:15 | 25.76548 | -100.08346 | 1790 ft | 198 kts | 120° |
| 2026-05-09 01:15 | 25.75822 | -100.07014 | 2374 ft | 203 kts | 121° |
| 2026-05-09 01:16 | 25.75102 | -100.05642 | 2889 ft | 210 kts | 120° |
| 2026-05-09 01:16 | 25.74360 | -100.04196 | 3230 ft | 222 kts | 121° |
| 2026-05-09 01:16 | 25.73522 | -100.02694 | 3560 ft | 234 kts | 123° |
| 2026-05-09 01:17 | 25.71708 | -99.99507 | 4388 ft | 258 kts | 128° |
| 2026-05-09 01:17 | 25.70369 | -99.98193 | 5015 ft | 259 kts | 153° |
| 2026-05-09 01:17 | 25.68630 | -99.97621 | 5549 ft | 267 kts | 176° |
| 2026-05-09 01:17 | 25.66755 | -99.97608 | 6200 ft | 271 kts | 180° |
| 2026-05-09 01:18 | 25.64851 | -99.97667 | 6768 ft | 276 kts | 181° |
| 2026-05-09 01:18 | 25.62930 | -99.97738 | 7437 ft | 278 kts | 182° |
| 2026-05-09 01:18 | 25.60979 | -99.97808 | 8001 ft | 281 kts | 182° |
| 2026-05-09 01:18 | 25.59012 | -99.97874 | 8597 ft | 286 kts | 182° |
| 2026-05-09 01:19 | 25.57008 | -99.97937 | 9184 ft | 289 kts | 183° |
| 2026-05-09 01:19 | 25.54984 | -99.97998 | 9800 ft | 293 kts | 183° |
| 2026-05-09 01:19 | 25.52932 | -99.98057 | 10283 ft | 300 kts | 183° |
| 2026-05-09 01:19 | 25.50785 | -99.98119 | 10484 ft | 317 kts | 183° |
| 2026-05-09 01:20 | 25.48555 | -99.98181 | 10977 ft | 322 kts | 183° |
| 2026-05-09 01:20 | 25.46308 | -99.98242 | 11602 ft | 323 kts | 184° |
| 2026-05-09 01:20 | 25.44054 | -99.98303 | 12253 ft | 325 kts | 184° |
| 2026-05-09 01:20 | 25.41786 | -99.98365 | 12890 ft | 327 kts | 184° |
| 2026-05-09 01:21 | 25.39494 | -99.98427 | 13544 ft | 329 kts | 185° |
| 2026-05-09 01:21 | 25.37197 | -99.98490 | 14141 ft | 332 kts | 185° |
| 2026-05-09 01:21 | 25.34883 | -99.98560 | 14758 ft | 333 kts | 186° |
| 2026-05-09 01:21 | 25.32597 | -99.98660 | 15399 ft | 334 kts | 186° |
| 2026-05-09 01:22 | 25.30268 | -99.98773 | 16035 ft | 336 kts | 187° |
| 2026-05-09 01:22 | 25.27926 | -99.98890 | 16646 ft | 337 kts | 187° |
| 2026-05-09 01:22 | 25.25579 | -99.99005 | 17269 ft | 339 kts | 187° |
| 2026-05-09 01:22 | 25.23216 | -99.99119 | 17900 ft | 341 kts | 187° |
| 2026-05-09 01:23 | 25.20836 | -99.99233 | 18432 ft | 343 kts | 187° |
| 2026-05-09 01:23 | 25.18436 | -99.99347 | 18932 ft | 346 kts | 187° |
| 2026-05-09 01:23 | 25.16842 | -99.99422 | 19271 ft | 347 kts | 188° |
| 2026-05-09 01:23 | 25.14418 | -99.99536 | 19792 ft | 350 kts | 187° |
| 2026-05-09 01:24 | 25.12006 | -99.99648 | 20441 ft | 346 kts | 187° |
| 2026-05-09 01:24 | 25.09575 | -99.99762 | 20820 ft | 353 kts | 187° |
| 2026-05-09 01:24 | 25.07098 | -99.99880 | 21234 ft | 359 kts | 187° |
| 2026-05-09 01:24 | 25.04595 | -99.99998 | 21699 ft | 361 kts | 187° |
| 2026-05-09 01:25 | 25.02089 | -100.00113 | 22241 ft | 361 kts | 187° |
| 2026-05-09 01:25 | 24.99566 | -100.00231 | 22650 ft | 365 kts | 187° |
| 2026-05-09 01:25 | 24.97012 | -100.00351 | 23100 ft | 369 kts | 187° |
| 2026-05-09 01:25 | 24.94441 | -100.00468 | 23570 ft | 371 kts | 186° |
| 2026-05-09 01:26 | 24.91849 | -100.00442 | 23945 ft | 375 kts | 183° |
| 2026-05-09 01:26 | 24.89225 | -100.00301 | 24348 ft | 378 kts | 182° |
| 2026-05-09 01:26 | 24.86590 | -100.00122 | 24696 ft | 382 kts | 181° |
| 2026-05-09 01:26 | 24.83920 | -99.99935 | 24922 ft | 385 kts | 181° |
| 2026-05-09 01:27 | 24.81265 | -99.99750 | 25397 ft | 382 kts | 182° |
| 2026-05-09 01:27 | 24.78605 | -99.99578 | 25748 ft | 384 kts | 182° |
| 2026-05-09 01:27 | 24.75915 | -99.99415 | 26050 ft | 389 kts | 182° |
| 2026-05-09 01:27 | 24.73201 | -99.99256 | 26373 ft | 392 kts | 183° |
| 2026-05-09 01:28 | 24.70473 | -99.99098 | 26736 ft | 394 kts | 182° |
| 2026-05-09 01:28 | 24.67771 | -99.98943 | 27122 ft | 394 kts | 183° |
| 2026-05-09 01:28 | 24.65023 | -99.98786 | 27451 ft | 397 kts | 183° |
| 2026-05-09 01:28 | 24.62256 | -99.98628 | 27770 ft | 399 kts | 183° |
| 2026-05-09 01:29 | 24.59431 | -99.98468 | 28087 ft | 402 kts | 183° |
| 2026-05-09 01:29 | 24.56674 | -99.98311 | 28423 ft | 404 kts | 183° |
| 2026-05-09 01:29 | 24.53858 | -99.98150 | 28761 ft | 406 kts | 183° |
| 2026-05-09 01:29 | 24.51029 | -99.97990 | 29076 ft | 408 kts | 183° |
| 2026-05-09 01:30 | 24.48185 | -99.97829 | 29371 ft | 411 kts | 183° |
| 2026-05-09 01:30 | 24.45321 | -99.97666 | 29676 ft | 413 kts | 183° |
| 2026-05-09 01:30 | 24.42447 | -99.97503 | 29972 ft | 415 kts | 183° |
| 2026-05-09 01:30 | 24.39553 | -99.97338 | 30239 ft | 416 kts | 183° |
| 2026-05-09 01:31 | 24.36657 | -99.97173 | 30512 ft | 417 kts | 183° |
| 2026-05-09 01:31 | 24.33754 | -99.97007 | 30781 ft | 418 kts | 183° |
| 2026-05-09 01:31 | 24.27884 | -99.96677 | 30877 ft | 427 kts | 183° |
| 2026-05-09 01:32 | 24.21874 | -99.96339 | 30876 ft | 437 kts | 183° |
| 2026-05-09 01:32 | 24.15726 | -99.95992 | 30865 ft | 446 kts | 182° |
| 2026-05-09 01:33 | 24.09481 | -99.95637 | 30862 ft | 452 kts | 182° |
| 2026-05-09 01:33 | 24.03163 | -99.95279 | 30867 ft | 457 kts | 182° |
| 2026-05-09 01:34 | 23.96782 | -99.94918 | 30863 ft | 459 kts | 182° |
| 2026-05-09 01:34 | 23.90418 | -99.94558 | 30854 ft | 462 kts | 182° |
| 2026-05-09 01:35 | 23.83983 | -99.94194 | 30860 ft | 463 kts | 182° |
| 2026-05-09 01:35 | 23.77552 | -99.93832 | 30861 ft | 462 kts | 182° |
| 2026-05-09 01:36 | 23.71126 | -99.93470 | 30851 ft | 462 kts | 182° |
| 2026-05-09 01:36 | 23.64716 | -99.93110 | 30843 ft | 461 kts | 182° |
| 2026-05-09 01:37 | 23.58310 | -99.92751 | 30838 ft | 460 kts | 182° |
| 2026-05-09 01:37 | 23.51922 | -99.92393 | 30840 ft | 459 kts | 182° |
| 2026-05-09 01:38 | 23.45533 | -99.92036 | 30842 ft | 459 kts | 182° |
| 2026-05-09 01:38 | 23.39147 | -99.91679 | 30834 ft | 459 kts | 182° |
| 2026-05-09 01:39 | 23.32764 | -99.91322 | 30813 ft | 459 kts | 182° |
| 2026-05-09 01:39 | 23.26443 | -99.90969 | 30816 ft | 458 kts | 182° |
| 2026-05-09 01:40 | 23.20083 | -99.90615 | 30816 ft | 458 kts | 182° |
| 2026-05-09 01:40 | 23.13718 | -99.90261 | 30802 ft | 459 kts | 182° |
| 2026-05-09 01:41 | 23.07324 | -99.89906 | 30792 ft | 460 kts | 181° |
| 2026-05-09 01:41 | 23.00925 | -99.89550 | 30772 ft | 460 kts | 182° |
| 2026-05-09 01:42 | 22.94527 | -99.89195 | 30773 ft | 461 kts | 182° |
| 2026-05-09 01:42 | 22.88117 | -99.88839 | 30762 ft | 462 kts | 182° |
| 2026-05-09 01:43 | 22.81692 | -99.88483 | 30766 ft | 462 kts | 181° |
| 2026-05-09 01:43 | 22.75252 | -99.88126 | 30759 ft | 463 kts | 181° |
| 2026-05-09 01:44 | 22.68848 | -99.87772 | 30749 ft | 463 kts | 181° |
| 2026-05-09 01:44 | 22.62404 | -99.87415 | 30752 ft | 464 kts | 181° |
| 2026-05-09 01:45 | 22.55957 | -99.87059 | 30741 ft | 464 kts | 181° |
| 2026-05-09 01:45 | 22.49464 | -99.86701 | 30745 ft | 464 kts | 181° |
| 2026-05-09 01:46 | 22.43054 | -99.86347 | 30728 ft | 464 kts | 181° |
| 2026-05-09 01:46 | 22.36607 | -99.85993 | 30740 ft | 463 kts | 181° |
| 2026-05-09 01:47 | 22.30164 | -99.85638 | 30734 ft | 464 kts | 181° |
| 2026-05-09 01:47 | 22.23719 | -99.85284 | 30731 ft | 463 kts | 181° |
| 2026-05-09 01:48 | 22.17272 | -99.84930 | 30723 ft | 464 kts | 181° |
| 2026-05-09 01:48 | 22.10825 | -99.84576 | 30739 ft | 464 kts | 181° |
| 2026-05-09 01:49 | 22.04374 | -99.84223 | 30725 ft | 464 kts | 181° |
| 2026-05-09 01:49 | 21.97915 | -99.83869 | 30721 ft | 464 kts | 181° |
| 2026-05-09 01:50 | 21.91464 | -99.83516 | 30726 ft | 464 kts | 181° |
| 2026-05-09 01:50 | 21.85014 | -99.83163 | 30720 ft | 464 kts | 181° |
| 2026-05-09 01:51 | 21.78559 | -99.82811 | 30718 ft | 464 kts | 181° |
| 2026-05-09 01:51 | 21.72142 | -99.82461 | 30711 ft | 465 kts | 181° |
| 2026-05-09 01:52 | 21.65685 | -99.82109 | 30717 ft | 465 kts | 181° |
| 2026-05-09 01:52 | 21.59231 | -99.81757 | 30682 ft | 460 kts | 181° |
| 2026-05-09 01:53 | 21.56085 | -99.81582 | 30588 ft | 445 kts | 181° |
| 2026-05-09 01:53 | 21.53046 | -99.81412 | 30519 ft | 431 kts | 180° |
| 2026-05-09 01:53 | 21.50094 | -99.81249 | 30428 ft | 418 kts | 181° |
| 2026-05-09 01:53 | 21.47216 | -99.81092 | 30182 ft | 411 kts | 181° |
| 2026-05-09 01:54 | 21.44385 | -99.80939 | 29961 ft | 403 kts | 181° |
| 2026-05-09 01:54 | 21.41610 | -99.80790 | 29786 ft | 395 kts | 180° |
| 2026-05-09 01:54 | 21.38895 | -99.80643 | 29666 ft | 385 kts | 181° |
| 2026-05-09 01:54 | 21.36269 | -99.80500 | 29729 ft | 375 kts | 181° |
| 2026-05-09 01:55 | 21.30980 | -99.80220 | 29741 ft | 387 kts | 181° |
| 2026-05-09 01:55 | 21.25546 | -99.79929 | 29715 ft | 391 kts | 180° |
| 2026-05-09 01:56 | 21.20118 | -99.79633 | 29726 ft | 390 kts | 180° |
| 2026-05-09 01:56 | 21.14703 | -99.79340 | 29725 ft | 389 kts | 180° |
| 2026-05-09 01:57 | 21.09311 | -99.79048 | 29693 ft | 388 kts | 180° |
| 2026-05-09 01:57 | 21.06589 | -99.78902 | 29255 ft | 394 kts | 180° |
| 2026-05-09 01:57 | 21.03862 | -99.78754 | 28877 ft | 390 kts | 180° |
| 2026-05-09 01:58 | 21.01157 | -99.78634 | 28417 ft | 388 kts | 181° |
| 2026-05-09 01:58 | 20.98487 | -99.78543 | 27911 ft | 389 kts | 181° |
| 2026-05-09 01:58 | 20.95782 | -99.78460 | 27418 ft | 388 kts | 181° |
| 2026-05-09 01:58 | 20.93079 | -99.78376 | 26926 ft | 388 kts | 181° |
| 2026-05-09 01:59 | 20.90382 | -99.78289 | 26455 ft | 388 kts | 181° |
| 2026-05-09 01:59 | 20.87700 | -99.78200 | 25966 ft | 383 kts | 180° |
| 2026-05-09 01:59 | 20.85055 | -99.78110 | 25490 ft | 376 kts | 180° |
| 2026-05-09 01:59 | 20.82457 | -99.78022 | 25028 ft | 370 kts | 180° |
| 2026-05-09 02:00 | 20.79902 | -99.77935 | 24575 ft | 365 kts | 180° |
| 2026-05-09 02:00 | 20.77365 | -99.77849 | 24182 ft | 364 kts | 180° |
| 2026-05-09 02:00 | 20.74842 | -99.77764 | 23793 ft | 363 kts | 180° |
| 2026-05-09 02:00 | 20.72309 | -99.77653 | 23410 ft | 364 kts | 176° |
| 2026-05-09 02:01 | 20.69813 | -99.77195 | 22958 ft | 366 kts | 166° |
| 2026-05-09 02:01 | 20.67386 | -99.76357 | 22562 ft | 365 kts | 163° |
| 2026-05-09 02:01 | 20.64997 | -99.75464 | 22175 ft | 363 kts | 163° |
| 2026-05-09 02:01 | 20.62619 | -99.74566 | 21798 ft | 360 kts | 163° |
| 2026-05-09 02:02 | 20.60289 | -99.73691 | 21439 ft | 358 kts | 163° |
| 2026-05-09 02:02 | 20.57942 | -99.72818 | 21054 ft | 356 kts | 163° |
| 2026-05-09 02:02 | 20.55602 | -99.71956 | 20703 ft | 354 kts | 163° |
| 2026-05-09 02:02 | 20.53274 | -99.71102 | 20352 ft | 353 kts | 163° |
| 2026-05-09 02:03 | 20.50958 | -99.70255 | 20001 ft | 351 kts | 163° |
| 2026-05-09 02:03 | 20.48656 | -99.69414 | 19663 ft | 349 kts | 163° |
| 2026-05-09 02:03 | 20.46358 | -99.68576 | 19321 ft | 348 kts | 163° |
| 2026-05-09 02:03 | 20.44072 | -99.67742 | 18985 ft | 346 kts | 163° |
| 2026-05-09 02:04 | 20.41789 | -99.66910 | 18641 ft | 345 kts | 163° |
| 2026-05-09 02:04 | 20.39526 | -99.66085 | 18324 ft | 343 kts | 163° |
| 2026-05-09 02:04 | 20.37264 | -99.65261 | 17989 ft | 342 kts | 163° |
| 2026-05-09 02:04 | 20.35020 | -99.64439 | 17615 ft | 341 kts | 161° |
| 2026-05-09 02:05 | 20.32964 | -99.63163 | 17205 ft | 344 kts | 140° |
| 2026-05-09 02:05 | 20.31419 | -99.61225 | 16862 ft | 344 kts | 127° |
| 2026-05-09 02:05 | 20.30076 | -99.59130 | 16554 ft | 340 kts | 125° |
| 2026-05-09 02:05 | 20.28786 | -99.57062 | 16545 ft | 332 kts | 125° |
| 2026-05-09 02:06 | 20.27493 | -99.55022 | 16500 ft | 334 kts | 126° |
| 2026-05-09 02:06 | 20.26172 | -99.52973 | 16358 ft | 336 kts | 126° |
| 2026-05-09 02:06 | 20.24832 | -99.50942 | 16165 ft | 333 kts | 130° |
| 2026-05-09 02:07 | 20.21981 | -99.48282 | 15850 ft | 327 kts | 145° |
| 2026-05-09 02:07 | 20.20158 | -99.46849 | 15693 ft | 322 kts | 145° |
| 2026-05-09 02:07 | 20.17794 | -99.44998 | 15443 ft | 314 kts | 145° |
| 2026-05-09 02:07 | 20.16042 | -99.43615 | 15215 ft | 314 kts | 145° |
| 2026-05-09 02:08 | 20.14282 | -99.42213 | 14991 ft | 318 kts | 144° |
| 2026-05-09 02:08 | 20.13083 | -99.41254 | 14831 ft | 319 kts | 144° |
| 2026-05-09 02:08 | 20.11337 | -99.39851 | 14616 ft | 318 kts | 144° |
| 2026-05-09 02:08 | 20.09574 | -99.38432 | 14373 ft | 317 kts | 144° |
| 2026-05-09 02:09 | 20.07818 | -99.37015 | 14151 ft | 316 kts | 144° |
| 2026-05-09 02:09 | 20.06082 | -99.35613 | 13914 ft | 309 kts | 144° |
| 2026-05-09 02:09 | 20.04401 | -99.34255 | 13567 ft | 298 kts | 144° |
| 2026-05-09 02:09 | 20.02779 | -99.32946 | 13189 ft | 288 kts | 144° |
| 2026-05-09 02:10 | 20.01296 | -99.31748 | 12941 ft | 275 kts | 144° |
| 2026-05-09 02:10 | 19.99804 | -99.30544 | 12676 ft | 263 kts | 144° |
| 2026-05-09 02:10 | 19.98379 | -99.29394 | 12436 ft | 250 kts | 144° |
| 2026-05-09 02:10 | 19.97021 | -99.28299 | 12231 ft | 239 kts | 144° |
| 2026-05-09 02:11 | 19.95715 | -99.27246 | 12087 ft | 232 kts | 144° |
| 2026-05-09 02:11 | 19.94434 | -99.26214 | 11934 ft | 233 kts | 144° |
| 2026-05-09 02:11 | 19.93138 | -99.25171 | 11798 ft | 235 kts | 144° |
| 2026-05-09 02:11 | 19.91833 | -99.24121 | 11635 ft | 236 kts | 144° |
| 2026-05-09 02:12 | 19.90516 | -99.23088 | 11470 ft | 236 kts | 151° |
| 2026-05-09 02:12 | 19.88966 | -99.22611 | 11304 ft | 232 kts | 176° |
| 2026-05-09 02:12 | 19.87370 | -99.22463 | 11210 ft | 229 kts | 176° |
| 2026-05-09 02:12 | 19.85789 | -99.22303 | 11107 ft | 228 kts | 175° |
| 2026-05-09 02:13 | 19.84216 | -99.22138 | 11002 ft | 227 kts | 175° |
| 2026-05-09 02:13 | 19.82626 | -99.21971 | 10914 ft | 233 kts | 175° |
| 2026-05-09 02:13 | 19.81037 | -99.21802 | 10857 ft | 230 kts | 175° |
| 2026-05-09 02:13 | 19.79478 | -99.21636 | 10851 ft | 222 kts | 175° |
| 2026-05-09 02:14 | 19.77952 | -99.21473 | 10850 ft | 219 kts | 175° |
| 2026-05-09 02:14 | 19.76454 | -99.21313 | 10843 ft | 216 kts | 175° |
| 2026-05-09 02:14 | 19.75084 | -99.21167 | 10881 ft | 211 kts | 175° |
| 2026-05-09 02:14 | 19.73675 | -99.21016 | 10846 ft | 196 kts | 176° |
| 2026-05-09 02:15 | 19.72357 | -99.20875 | 10840 ft | 186 kts | 175° |
| 2026-05-09 02:15 | 19.71086 | -99.20739 | 10622 ft | 180 kts | 175° |
| 2026-05-09 02:15 | 19.69848 | -99.20608 | 10470 ft | 180 kts | 175° |
| 2026-05-09 02:15 | 19.68599 | -99.20475 | 10322 ft | 181 kts | 175° |
| 2026-05-09 02:16 | 19.67352 | -99.20318 | 10161 ft | 181 kts | 167° |
| 2026-05-09 02:16 | 19.66351 | -99.19578 | 10001 ft | 179 kts | 120° |
| 2026-05-09 02:16 | 19.65906 | -99.18340 | 9910 ft | 181 kts | 108° |
| 2026-05-09 02:16 | 19.65501 | -99.17103 | 9747 ft | 178 kts | 109° |
| 2026-05-09 02:17 | 19.65087 | -99.15847 | 9608 ft | 177 kts | 109° |
| 2026-05-09 02:17 | 19.64879 | -99.14590 | 9344 ft | 177 kts | 81° |
| 2026-05-09 02:17 | 19.65135 | -99.13316 | 9208 ft | 179 kts | 78° |
| 2026-05-09 02:17 | 19.65376 | -99.12033 | 9162 ft | 175 kts | 78° |
| 2026-05-09 02:18 | 19.65868 | -99.10884 | 9156 ft | 173 kts | 47° |
| 2026-05-09 02:18 | 19.66685 | -99.09934 | 9159 ft | 175 kts | 50° |
| 2026-05-09 02:18 | 19.67465 | -99.08942 | 8999 ft | 174 kts | 49° |
| 2026-05-09 02:18 | 19.68245 | -99.07979 | 8875 ft | 171 kts | 48° |
| 2026-05-09 02:19 | 19.69017 | -99.07030 | 8749 ft | 169 kts | 48° |
| 2026-05-09 02:19 | 19.69779 | -99.06094 | 8579 ft | 166 kts | 47° |
| 2026-05-09 02:19 | 19.70526 | -99.05176 | 8332 ft | 162 kts | 49° |
| 2026-05-09 02:19 | 19.71246 | -99.04307 | 8106 ft | 153 kts | 50° |
| 2026-05-09 02:20 | 19.71923 | -99.03465 | 7797 ft | 147 kts | 53° |
| 2026-05-09 02:20 | 19.72572 | -99.02653 | 7468 ft | 143 kts | 51° |
| 2026-05-09 02:20 | 19.73201 | -99.01888 | 7377 ft | 126 kts | 50° |
| 2026-05-09 02:20 | 19.73697 | -99.01284 | 7377 ft | 91 kts | 49° |
| 2026-05-09 02:21 | 19.74019 | -99.00888 | 7377 ft | 58 kts | 49° |
| 2026-05-09 02:21 | 19.74229 | -99.00677 | 7377 ft | 36 kts | 28° |
| 2026-05-09 02:21 | 19.74380 | -99.00612 | 7376 ft | 15 kts | 20° |
| 2026-05-09 02:21 | 19.74479 | -99.00588 | 7380 ft | 14 kts | 354° |
| 2026-05-09 02:22 | 19.74502 | -99.00660 | 7377 ft | 14 kts | 230° |
| 2026-05-09 02:22 | 19.74440 | -99.00735 | 7376 ft | 13 kts | 229° |
| 2026-05-09 02:22 | 19.74381 | -99.00807 | 7376 ft | 13 kts | 229° |
| 2026-05-09 02:22 | 19.74323 | -99.00878 | 7376 ft | 12 kts | 229° |
| 2026-05-09 02:23 | 19.74267 | -99.00946 | 7376 ft | 12 kts | 229° |
| 2026-05-09 02:23 | 19.74211 | -99.01014 | 7376 ft | 13 kts | 229° |
| 2026-05-09 02:23 | 19.74153 | -99.01087 | 7377 ft | 14 kts | 229° |
| 2026-05-09 02:23 | 19.74088 | -99.01166 | 7375 ft | 16 kts | 229° |
| 2026-05-09 02:24 | 19.73998 | -99.01275 | 7377 ft | 21 kts | 229° |
| 2026-05-09 02:24 | 19.73905 | -99.01390 | 7376 ft | 20 kts | 229° |
| 2026-05-09 02:24 | 19.73809 | -99.01505 | 7379 ft | 25 kts | 229° |
| 2026-05-09 02:24 | 19.73692 | -99.01649 | 7379 ft | 25 kts | 229° |
| 2026-05-09 02:25 | 19.73589 | -99.01775 | 7376 ft | 18 kts | 229° |
| 2026-05-09 02:25 | 19.73553 | -99.01875 | 7376 ft | 13 kts | 293° |
| 2026-05-09 02:25 | 19.73529 | -99.01959 | 7376 ft | 12 kts | 228° |
| 2026-05-09 02:25 | 19.73485 | -99.02014 | 7376 ft | 9 kts | 230° |
| 2026-05-09 02:26 | 19.73446 | -99.02064 | 7376 ft | 9 kts | 230° |
| 2026-05-09 02:26 | 19.73451 | -99.02118 | 7376 ft | 8 kts | 320° |
| 2026-05-09 02:26 | 19.73493 | -99.02148 | 7376 ft | 2 kts | 320° |
| 2026-05-09 02:26 | 19.73500 | -99.02154 | 7376 ft | 0 kts | 319° |
| 2026-05-09 02:33 | 19.73499 | -99.02154 | 7376 ft | 0 kts | 319° |
| 2026-05-09 02:38 | 19.73499 | -99.02153 | 7376 ft | 0 kts | 319° |